createdAt,value
2022-11-09T00:02:11.583Z,28.90
2022-11-09T00:04:40.405Z,29.10
2022-11-09T00:07:09.403Z,27.80
2022-11-09T00:09:39.830Z,28.20
2022-11-09T00:12:08.980Z,27.40
2022-11-09T00:14:38.187Z,28.80
2022-11-09T00:17:07.132Z,28.80
2022-11-09T00:19:36.281Z,27.90
2022-11-09T00:22:05.108Z,28.00
2022-11-09T00:24:34.095Z,25.10
2022-11-09T00:27:03.073Z,25.10
2022-11-09T00:29:31.926Z,27.70
2022-11-09T00:32:00.726Z,25.60
2022-11-09T00:34:32.582Z,25.30
2022-11-09T00:37:01.401Z,26.20
2022-11-09T00:39:30.110Z,25.80
2022-11-09T00:42:00.353Z,28.80
2022-11-09T00:44:31.811Z,27.40
2022-11-09T00:47:00.500Z,28.70
2022-11-09T00:49:29.502Z,26.30
2022-11-09T00:52:02.759Z,29.80
2022-11-09T00:54:34.002Z,25.90
2022-11-09T00:57:03.914Z,27.10
2022-11-09T00:59:32.940Z,26.60
2022-11-09T01:02:01.656Z,25.40
2022-11-09T01:04:30.632Z,28.50
2022-11-09T01:07:00.684Z,25.10
2022-11-09T01:09:29.574Z,28.40
2022-11-09T01:11:58.327Z,26.20
2022-11-09T01:14:27.073Z,23.10
2022-11-09T01:16:56.492Z,25.90
2022-11-09T01:19:27.719Z,23.90
2022-11-09T01:21:56.658Z,27.80
2022-11-09T01:24:25.506Z,23.30
2022-11-09T01:26:56.350Z,24.70
2022-11-09T01:29:25.127Z,24.30
2022-11-09T01:31:56.068Z,24.30
2022-11-09T01:34:29.787Z,27.50
2022-11-09T01:36:58.739Z,23.30
2022-11-09T01:39:27.515Z,24.40
2022-11-09T01:41:56.225Z,27.30
2022-11-09T01:44:28.175Z,25.70
2022-11-09T01:47:00.503Z,24.10
2022-11-09T01:49:40.391Z,25.40
2022-11-09T01:52:16.821Z,26.80
2022-11-09T01:54:48.007Z,25.80
2022-11-09T01:57:21.819Z,24.40
2022-11-09T01:59:55.353Z,24.70
2022-11-09T02:02:25.710Z,25.60
2022-11-09T02:05:00.951Z,26.30
2022-11-09T02:07:30.330Z,25.90
2022-11-09T02:10:03.997Z,25.20
2022-11-09T02:12:36.307Z,23.80
2022-11-09T02:15:09.221Z,27.30
2022-11-09T02:17:41.752Z,23.50
2022-11-09T02:20:13.247Z,25.80
2022-11-09T02:22:42.620Z,27.70
2022-11-09T02:25:12.661Z,25.90
2022-11-09T02:27:43.072Z,24.70
2022-11-09T02:30:15.117Z,24.50
2022-11-09T02:32:47.452Z,30.00
2022-11-09T02:35:16.359Z,25.40
2022-11-09T02:37:59.400Z,26.20
2022-11-09T02:40:32.629Z,27.30
2022-11-09T02:43:02.609Z,26.10
2022-11-09T02:45:31.280Z,27.10
2022-11-09T02:48:00.139Z,25.10
2022-11-09T02:50:29.384Z,23.80
2022-11-09T02:52:58.604Z,27.00
2022-11-09T02:55:27.816Z,28.50
2022-11-09T02:57:56.887Z,25.20
2022-11-09T03:00:25.959Z,25.70
2022-11-09T03:02:56.376Z,23.80
2022-11-09T03:05:25.542Z,24.70
2022-11-09T03:07:54.515Z,26.80
2022-11-09T03:10:24.110Z,23.30
2022-11-09T03:12:55.490Z,26.10
2022-11-09T03:15:24.344Z,27.60
2022-11-09T03:17:54.322Z,26.40
2022-11-09T03:20:25.716Z,23.40
2022-11-09T03:22:58.728Z,25.00
2022-11-09T03:25:28.425Z,26.60
2022-11-09T03:28:01.420Z,25.90
2022-11-09T03:30:30.582Z,23.90
2022-11-09T03:33:00.819Z,29.80
2022-11-09T03:35:30.017Z,26.20
2022-11-09T03:37:58.909Z,25.40
2022-11-09T03:40:28.482Z,23.90
2022-11-09T03:42:58.408Z,25.00
2022-11-09T03:45:27.857Z,28.30
2022-11-09T03:50:57.268Z,23.80
2022-11-09T03:53:26.019Z,24.90
2022-11-09T03:55:56.728Z,25.90
2022-11-09T03:58:25.475Z,24.60
2022-11-09T04:00:54.211Z,23.60
2022-11-09T04:03:23.192Z,23.90
2022-11-09T04:05:54.800Z,24.00
2022-11-09T04:08:24.126Z,26.50
2022-11-09T04:10:53.020Z,24.10
2022-11-09T04:13:22.062Z,25.50
2022-11-09T04:15:51.062Z,26.10
2022-11-09T04:18:24.792Z,24.50
2022-11-09T04:20:56.293Z,24.30
2022-11-09T04:23:25.041Z,25.10
2022-11-09T04:25:54.106Z,25.50
2022-11-09T04:28:22.775Z,25.20
2022-11-09T04:30:51.651Z,24.50
2022-11-09T04:33:22.214Z,27.00
2022-11-09T04:35:51.219Z,26.90
2022-11-09T04:38:21.923Z,26.70
2022-11-09T04:40:50.792Z,25.00
2022-11-09T04:43:19.804Z,28.20
2022-11-09T04:45:49.779Z,24.60
2022-11-09T04:48:18.412Z,23.60
2022-11-09T04:50:47.215Z,26.00
2022-11-09T04:53:17.039Z,24.10
2022-11-09T04:55:45.816Z,24.90
2022-11-09T04:58:14.731Z,29.60
2022-11-09T05:00:43.470Z,27.10
2022-11-09T05:03:12.413Z,26.70
2022-11-09T05:05:48.014Z,26.10
2022-11-09T05:08:17.190Z,26.90
2022-11-09T05:10:46.099Z,24.40
2022-11-09T05:13:18.810Z,24.50
2022-11-09T05:15:47.717Z,29.20
2022-11-09T05:18:16.361Z,28.10
2022-11-09T05:20:45.042Z,26.60
2022-11-09T05:23:31.841Z,25.40
2022-11-09T05:26:00.604Z,34.30
2022-11-09T05:28:29.260Z,33.10
2022-11-09T05:30:58.054Z,27.20
2022-11-09T05:33:30.493Z,25.50
2022-11-09T05:35:59.514Z,26.80
2022-11-09T05:38:30.498Z,27.40
2022-11-09T05:40:59.198Z,27.30
2022-11-09T05:43:33.362Z,26.40
2022-11-09T05:46:06.349Z,26.40
2022-11-09T05:48:35.968Z,28.30
2022-11-09T05:53:49.808Z,24.90
2022-11-09T05:56:18.810Z,27.80
2022-11-09T05:59:09.432Z,27.10
2022-11-09T06:01:38.305Z,26.10
2022-11-09T06:04:07.058Z,27.00
2022-11-09T06:06:35.799Z,26.00
2022-11-09T06:09:07.516Z,30.20
2022-11-09T06:11:38.815Z,27.60
2022-11-09T06:14:08.137Z,26.80
2022-11-09T06:16:37.489Z,28.50
2022-11-09T06:19:06.534Z,27.90
2022-11-09T06:21:35.580Z,26.00
2022-11-09T06:24:05.181Z,27.00
2022-11-09T06:26:34.162Z,25.50
2022-11-09T06:29:03.428Z,28.40
2022-11-09T06:31:32.227Z,29.00
2022-11-09T06:34:02.831Z,30.10
2022-11-09T06:36:31.535Z,31.30
2022-11-09T06:39:00.639Z,32.90
2022-11-09T06:41:30.524Z,29.90
2022-11-09T06:43:59.347Z,27.10
2022-11-09T06:46:28.049Z,29.20
2022-11-09T06:48:59.302Z,30.20
2022-11-09T06:51:28.022Z,29.40
2022-11-09T06:53:56.996Z,32.40
2022-11-09T06:56:25.680Z,28.10
2022-11-09T06:58:57.221Z,30.10
2022-11-09T07:01:28.994Z,28.70
2022-11-09T07:04:00.600Z,31.40
2022-11-09T07:06:29.653Z,28.10
2022-11-09T07:08:58.659Z,29.80
2022-11-09T07:11:27.577Z,32.40
2022-11-09T07:13:57.643Z,30.40
2022-11-09T07:16:26.488Z,28.50
2022-11-09T07:18:55.379Z,30.80
2022-11-09T07:21:24.273Z,33.00
2022-11-09T07:23:55.542Z,33.20
2022-11-09T07:26:24.223Z,29.90
2022-11-09T07:28:57.258Z,35.70
2022-11-09T07:31:28.633Z,37.50
2022-11-09T07:34:00.676Z,41.50
2022-11-09T07:36:29.563Z,36.90
2022-11-09T07:38:58.242Z,36.40
2022-11-09T07:41:31.945Z,39.50
2022-11-09T07:44:03.927Z,38.70
2022-11-09T07:46:34.924Z,33.50
2022-11-09T07:49:06.355Z,35.30
2022-11-09T07:51:36.362Z,37.00
2022-11-09T07:54:05.703Z,33.30
2022-11-09T07:56:34.470Z,36.50
2022-11-09T07:59:04.043Z,35.90
2022-11-09T08:01:32.854Z,36.00
2022-11-09T08:04:02.099Z,33.60
2022-11-09T08:06:31.645Z,29.30
2022-11-09T08:09:00.595Z,31.20
2022-11-09T08:11:32.243Z,30.30
2022-11-09T08:14:01.068Z,31.10
2022-11-09T08:16:34.872Z,29.10
2022-11-09T08:19:08.361Z,30.00
2022-11-09T08:21:37.736Z,30.40
2022-11-09T08:24:08.020Z,30.70
2022-11-09T08:26:36.741Z,28.20
2022-11-09T08:29:05.893Z,33.80
2022-11-09T08:31:34.773Z,29.90
2022-11-09T08:34:03.814Z,33.30
2022-11-09T08:36:33.280Z,30.90
2022-11-09T08:39:02.472Z,28.60
2022-11-09T08:41:35.165Z,30.70
2022-11-09T08:44:04.740Z,30.00
2022-11-09T08:46:40.808Z,30.00
2022-11-09T08:49:10.344Z,29.80
2022-11-09T08:51:42.253Z,30.40
2022-11-09T08:54:12.920Z,30.20
2022-11-09T08:56:41.847Z,37.30
2022-11-09T08:59:11.173Z,37.20
2022-11-09T09:01:39.926Z,33.90
2022-11-09T09:04:08.750Z,30.90
2022-11-09T09:06:37.710Z,29.70
2022-11-09T09:09:06.488Z,29.50
2022-11-09T09:11:35.459Z,30.00
2022-11-09T09:14:04.627Z,29.50
2022-11-09T09:16:33.675Z,32.30
2022-11-09T09:19:02.380Z,31.30
2022-11-09T09:21:31.253Z,31.10
2022-11-09T09:24:00.571Z,36.10
2022-11-09T09:26:29.244Z,34.10
2022-11-09T09:29:06.887Z,36.90
2022-11-09T09:31:35.777Z,35.20
2022-11-09T09:34:04.507Z,37.90
2022-11-09T09:36:34.909Z,36.60
2022-11-09T09:39:06.643Z,32.60
2022-11-09T09:41:39.277Z,32.30
2022-11-09T09:44:20.349Z,30.30
2022-11-09T09:47:04.983Z,31.20
2022-11-09T09:49:40.003Z,29.30
2022-11-09T09:52:20.122Z,32.40
2022-11-09T09:54:57.946Z,33.10
2022-11-09T09:57:29.222Z,31.90
2022-11-09T10:00:01.641Z,29.60
2022-11-09T10:02:46.532Z,29.30
2022-11-09T10:05:20.520Z,28.40
2022-11-09T10:07:57.128Z,37.00
2022-11-09T10:10:45.734Z,36.90
2022-11-09T10:13:37.061Z,35.10
2022-11-09T10:16:14.588Z,29.10
2022-11-09T10:19:00.347Z,30.00
2022-11-09T10:21:37.432Z,33.60
2022-11-09T10:24:23.309Z,29.60
2022-11-09T10:26:54.650Z,29.80
2022-11-09T10:29:25.504Z,28.00
2022-11-09T10:31:57.439Z,29.60
2022-11-09T10:34:29.465Z,27.40
2022-11-09T10:37:10.518Z,27.40
2022-11-09T10:39:47.150Z,27.80
2022-11-09T10:42:34.677Z,28.40
2022-11-09T10:45:29.641Z,27.10
2022-11-09T10:48:34.856Z,26.80
2022-11-09T10:51:40.936Z,27.90
2022-11-09T10:54:31.809Z,30.30
2022-11-09T10:57:22.473Z,26.40
2022-11-09T11:00:17.521Z,27.40
2022-11-09T11:03:15.997Z,27.80
2022-11-09T11:06:06.126Z,27.70
2022-11-09T11:09:13.897Z,28.50
2022-11-09T11:12:15.361Z,25.40
2022-11-09T11:15:03.582Z,26.90
2022-11-09T11:17:59.957Z,28.50
2022-11-09T11:20:47.772Z,28.40
2022-11-09T11:23:36.394Z,28.20
2022-11-09T11:26:37.617Z,27.30
2022-11-09T11:29:38.678Z,31.20
2022-11-09T11:32:26.579Z,27.80
2022-11-09T11:35:18.798Z,28.60
2022-11-09T11:38:22.387Z,31.40
2022-11-09T11:41:35.950Z,29.70
2022-11-09T11:44:39.570Z,33.50
2022-11-09T11:47:36.168Z,31.90
2022-11-09T11:50:32.120Z,27.00
2022-11-09T11:53:33.369Z,26.70
2022-11-09T11:56:26.681Z,27.10
2022-11-09T11:59:35.856Z,27.40
2022-11-09T12:02:55.490Z,25.70
2022-11-09T12:06:12.086Z,25.90
2022-11-09T12:09:31.518Z,28.10
2022-11-09T12:12:29.559Z,31.20
2022-11-09T12:15:29.258Z,32.20
2022-11-09T12:18:31.590Z,27.20
2022-11-09T12:21:26.847Z,27.30
2022-11-09T12:24:23.854Z,29.70
2022-11-09T12:27:32.009Z,27.90
2022-11-09T12:30:23.661Z,32.80
2022-11-09T12:33:17.171Z,37.00
2022-11-09T12:36:11.886Z,33.50
2022-11-09T12:39:06.096Z,32.50
2022-11-09T12:41:58.478Z,32.80
2022-11-09T12:44:57.750Z,30.00
2022-11-09T12:47:45.764Z,31.30
2022-11-09T12:50:34.656Z,33.90
2022-11-09T12:53:28.705Z,32.60
2022-11-09T12:56:22.077Z,32.50
2022-11-09T12:59:33.446Z,34.40
2022-11-09T13:02:31.255Z,38.60
2022-11-09T13:05:33.107Z,40.60
2022-11-09T13:08:28.504Z,33.90
2022-11-09T13:11:35.796Z,30.80
2022-11-09T13:18:03.913Z,29.60
2022-11-09T13:20:56.852Z,30.80
2022-11-09T13:24:04.478Z,32.00
2022-11-09T13:27:28.410Z,35.00
2022-11-09T13:30:49.065Z,28.90
2022-11-09T13:33:38.628Z,34.10
2022-11-09T13:36:26.263Z,32.00
2022-11-09T13:39:32.689Z,34.10
2022-11-09T13:42:28.407Z,31.50
2022-11-09T13:45:27.276Z,33.70
2022-11-09T13:48:29.139Z,32.60
2022-11-09T13:51:19.726Z,36.30
2022-11-09T13:54:30.453Z,32.60
2022-11-09T13:57:18.269Z,30.70
2022-11-09T14:00:14.386Z,31.20
2022-11-09T14:03:06.110Z,31.10
2022-11-09T14:05:55.809Z,34.10
2022-11-09T14:08:44.007Z,59.20
2022-11-09T14:12:00.217Z,46.60
2022-11-09T14:15:11.741Z,31.70
2022-11-09T14:18:13.109Z,32.70
2022-11-09T14:21:22.633Z,29.30
2022-11-09T14:24:17.804Z,41.30
2022-11-09T14:27:17.041Z,47.30
2022-11-09T14:30:18.876Z,36.20
2022-11-09T14:33:21.681Z,30.90
2022-11-09T14:36:12.897Z,30.20
2022-11-09T14:39:03.961Z,32.60
2022-11-09T14:41:55.339Z,33.80
2022-11-09T14:44:45.737Z,34.70
2022-11-09T14:47:38.883Z,36.50
2022-11-09T14:50:30.585Z,33.20
2022-11-09T14:53:21.831Z,34.60
2022-11-09T14:56:12.507Z,34.90
2022-11-09T14:59:04.098Z,41.80
2022-11-09T15:02:01.313Z,36.50
2022-11-09T15:04:56.264Z,35.30
2022-11-09T15:07:49.097Z,36.10
2022-11-09T15:10:37.972Z,41.20
2022-11-09T15:13:33.903Z,36.20
2022-11-09T15:16:24.019Z,37.90
2022-11-09T15:19:24.066Z,40.70
2022-11-09T15:22:43.314Z,43.90
2022-11-09T15:25:34.567Z,43.10
2022-11-09T15:28:25.382Z,48.30
2022-11-09T15:31:16.004Z,41.10
2022-11-09T15:34:24.003Z,38.10
2022-11-09T15:37:24.369Z,41.30
2022-11-09T15:40:21.918Z,37.20
2022-11-09T15:43:09.901Z,37.20
2022-11-09T15:45:59.610Z,36.60
2022-11-09T15:48:47.359Z,37.00
2022-11-09T15:51:37.186Z,36.20
2022-11-09T15:54:25.049Z,37.70
2022-11-09T15:57:18.657Z,35.70
2022-11-09T16:00:19.534Z,38.30
2022-11-09T16:03:09.900Z,38.60
2022-11-09T16:05:58.861Z,38.30
2022-11-09T16:08:48.940Z,39.30
2022-11-09T16:11:36.683Z,36.10
2022-11-09T16:14:30.441Z,39.40
2022-11-09T16:17:22.315Z,40.00
2022-11-09T16:20:11.937Z,37.70
2022-11-09T16:22:59.659Z,35.90
2022-11-09T16:25:49.330Z,38.70
2022-11-09T16:28:39.605Z,38.00
2022-11-09T16:31:50.329Z,38.20
2022-11-09T16:34:36.562Z,36.30
2022-11-09T16:37:27.713Z,38.00
2022-11-09T16:40:17.991Z,49.40
2022-11-09T16:43:05.577Z,56.10
2022-11-09T16:45:53.203Z,44.90
2022-11-09T16:48:42.091Z,43.40
2022-11-09T16:51:30.508Z,39.20
2022-11-09T16:54:18.165Z,36.80
2022-11-09T16:57:06.779Z,34.70
2022-11-09T17:02:56.719Z,42.90
2022-11-09T17:05:44.649Z,38.00
2022-11-09T17:08:32.729Z,35.90
2022-11-09T17:11:20.751Z,38.90
2022-11-09T17:14:10.054Z,39.20
2022-11-09T17:16:58.159Z,37.80
2022-11-09T17:19:46.210Z,35.30
2022-11-09T17:22:34.141Z,61.00
2022-11-09T17:25:22.110Z,56.80
2022-11-09T17:28:10.181Z,41.20
2022-11-09T17:30:58.455Z,43.60
2022-11-09T17:33:48.898Z,40.50
2022-11-09T17:37:02.331Z,38.60
2022-11-09T17:39:45.603Z,36.80
2022-11-09T17:42:35.121Z,36.90
2022-11-09T17:45:23.037Z,38.40
2022-11-09T17:48:11.484Z,39.20
2022-11-09T17:51:01.440Z,36.10
2022-11-09T17:53:49.664Z,37.70
2022-11-09T17:56:37.942Z,38.00
2022-11-09T17:59:29.673Z,40.80
2022-11-09T18:02:18.143Z,38.80
2022-11-09T18:05:08.019Z,35.70
2022-11-09T18:07:55.588Z,41.30
2022-11-09T18:10:49.612Z,42.80
2022-11-09T18:13:38.454Z,40.30
2022-11-09T18:16:27.737Z,41.60
2022-11-09T18:19:15.744Z,44.90
2022-11-09T18:22:04.904Z,44.00
2022-11-09T18:24:54.796Z,40.70
2022-11-09T18:27:42.297Z,41.50
2022-11-09T18:30:31.368Z,42.00
2022-11-09T18:33:20.629Z,43.90
2022-11-09T18:36:11.792Z,40.40
2022-11-09T18:39:02.810Z,43.70
2022-11-09T18:41:51.685Z,39.80
2022-11-09T18:44:40.035Z,43.30
2022-11-09T18:47:28.358Z,42.60
2022-11-09T18:50:17.515Z,40.60
2022-11-09T18:53:05.290Z,44.60
2022-11-09T18:56:02.276Z,41.90
2022-11-09T18:58:59.355Z,42.40
2022-11-09T19:01:47.478Z,41.00
2022-11-09T19:04:35.488Z,44.20
2022-11-09T19:07:22.941Z,46.70
2022-11-09T19:10:10.827Z,45.20
2022-11-09T19:12:59.978Z,49.90
2022-11-09T19:15:50.006Z,43.70
2022-11-09T19:18:42.216Z,45.00
2022-11-09T19:21:40.191Z,49.70
2022-11-09T19:24:29.685Z,43.00
2022-11-09T19:27:18.053Z,42.90
2022-11-09T19:30:09.915Z,58.70
2022-11-09T19:32:59.650Z,56.90
2022-11-09T19:36:23.355Z,49.20
2022-11-09T19:39:01.210Z,51.40
2022-11-09T19:41:49.287Z,55.80
2022-11-09T19:44:36.688Z,46.70
2022-11-09T19:47:24.443Z,46.90
2022-11-09T19:50:12.688Z,48.80
2022-11-09T19:53:00.781Z,46.60
2022-11-09T19:55:49.877Z,46.20
2022-11-09T19:58:37.978Z,54.20
2022-11-09T20:01:26.344Z,51.40
2022-11-09T20:04:14.643Z,49.50
2022-11-09T20:07:24.834Z,49.50
2022-11-09T20:10:13.596Z,44.80
2022-11-09T20:13:02.295Z,46.20
2022-11-09T20:15:51.754Z,45.90
2022-11-09T20:18:39.761Z,45.70
2022-11-09T20:21:27.636Z,45.60
2022-11-09T20:24:16.248Z,49.20
2022-11-09T20:27:03.644Z,56.10
2022-11-09T20:29:51.077Z,53.50
2022-11-09T20:32:38.343Z,49.50
2022-11-09T20:35:26.117Z,57.40
2022-11-09T20:38:13.469Z,84.60
2022-11-09T20:41:04.008Z,148.20
2022-11-09T20:43:51.823Z,115.90
2022-11-09T20:46:39.328Z,113.30
2022-11-09T20:49:26.497Z,93.20
2022-11-09T20:52:14.418Z,63.20
2022-11-09T20:55:01.865Z,51.40
2022-11-09T20:57:49.314Z,53.70
2022-11-09T21:00:37.088Z,50.60
2022-11-09T21:03:28.523Z,51.70
2022-11-09T21:06:16.267Z,53.50
2022-11-09T21:09:05.590Z,57.80
2022-11-09T21:12:11.265Z,51.40
2022-11-09T21:14:58.495Z,46.40
2022-11-09T21:17:47.389Z,50.60
2022-11-09T21:20:35.412Z,50.20
2022-11-09T21:23:41.294Z,48.40
2022-11-09T21:26:48.652Z,48.70
2022-11-09T21:30:00.718Z,47.10
2022-11-09T21:32:53.525Z,50.90
2022-11-09T21:35:41.230Z,50.30
2022-11-09T21:38:36.770Z,50.30
2022-11-09T21:41:45.300Z,47.60
2022-11-09T21:44:34.186Z,53.30
2022-11-09T21:47:26.291Z,55.40
2022-11-09T21:50:13.758Z,49.60
2022-11-09T21:53:01.283Z,50.60
2022-11-09T21:55:48.551Z,59.40
2022-11-09T21:58:36.644Z,49.90
2022-11-09T22:01:24.952Z,51.80
2022-11-09T22:04:13.165Z,50.70
2022-11-09T22:07:01.026Z,53.10
2022-11-09T22:10:09.507Z,52.50
2022-11-09T22:13:19.058Z,51.10
2022-11-09T22:16:08.864Z,51.60
2022-11-09T22:19:15.353Z,53.80
2022-11-09T22:22:02.693Z,58.80
2022-11-09T22:24:50.064Z,49.70
2022-11-09T22:27:37.741Z,52.60
2022-11-09T22:30:25.176Z,51.00
2022-11-09T22:33:13.863Z,43.50
2022-11-09T22:36:03.374Z,50.90
2022-11-09T22:38:50.873Z,48.10
2022-11-09T22:41:38.581Z,50.40
2022-11-09T22:44:26.144Z,56.80
2022-11-09T22:47:13.736Z,61.10
2022-11-09T22:50:01.070Z,61.40
2022-11-09T22:52:53.344Z,57.00
2022-11-09T22:55:41.653Z,54.30
2022-11-09T22:58:30.998Z,50.00
2022-11-09T23:01:20.590Z,52.80
2022-11-09T23:04:09.756Z,59.90
2022-11-09T23:06:57.244Z,64.90
2022-11-09T23:09:47.266Z,73.50
2022-11-09T23:12:35.121Z,77.70
2022-11-09T23:15:22.840Z,74.20
2022-11-09T23:18:32.240Z,64.80
2022-11-09T23:21:20.738Z,59.60
2022-11-09T23:24:29.564Z,55.50
2022-11-09T23:27:19.749Z,54.60
2022-11-09T23:30:08.677Z,52.70
2022-11-09T23:32:56.074Z,49.10
2022-11-09T23:35:43.928Z,66.90
2022-11-09T23:38:35.810Z,82.30
2022-11-09T23:41:23.479Z,70.10
2022-11-09T23:44:10.941Z,62.30
2022-11-09T23:46:58.688Z,56.90
2022-11-09T23:49:46.126Z,52.70
2022-11-09T23:52:34.239Z,52.10
2022-11-09T23:55:22.331Z,46.70
2022-11-09T23:58:12.467Z,50.20
